Time;durP1;ratioP1;P1;durP2;ratioP2;P2;SDS_P1;SDS_P2;PMS_P1;PMS_P2;Temp;Humidity;BMP_temperature;BMP_pressure;BME280_temperature;BME280_humidity;BME280_pressure;Samples;Min_cycle;Max_cycle;Signal;HPM_P1;HPM_P2
2023/01/02 04:01:03;;;;;;;1.35;0.90;;;14.80;54.80;;;;;;5878041;23;46189;-62
2023/01/02 04:03:56;;;;;;;0.70;0.70;;;14.80;54.90;;;;;;4895504;23;45604;-60
2023/01/02 04:06:23;;;;;;;;;;;14.80;54.90;;;;;;4877203;28;52506;-60
2023/01/02 04:09:17;;;;;;;0.77;0.70;;;14.80;55.00;;;;;;4871408;28;45507;-59
2023/01/02 04:11:45;;;;;;;1.50;0.70;;;14.80;54.90;;;;;;4864195;28;45470;-60
2023/01/02 04:14:21;;;;;;;0.75;0.65;;;14.80;54.90;;;;;;4881665;28;45481;-59
2023/01/02 04:16:47;;;;;;;0.63;0.63;;;14.80;55.00;;;;;;4856039;28;45845;-59
2023/01/02 04:19:18;;;;;;;3.10;1.00;;;14.80;54.90;;;;;;4858759;29;44940;-60
2023/01/02 04:21:44;;;;;;;0.98;0.82;;;14.80;54.90;;;;;;4876446;28;45532;-60
2023/01/02 04:24:23;;;;;;;0.93;0.80;;;14.80;54.90;;;;;;4868594;29;45166;-60
2023/01/02 04:27:08;;;;;;;0.57;0.55;;;14.80;54.90;;;;;;4879824;28;46972;-60
2023/01/02 04:29:34;;;;;;;0.70;0.63;;;14.80;54.90;;;;;;4887451;28;45282;-60
2023/01/02 04:32:39;;;;;;;0.60;0.60;;;14.80;54.90;;;;;;4879635;28;45359;-60
2023/01/02 04:35:07;;;;;;;0.65;0.65;;;14.80;54.90;;;;;;4836360;29;45833;-60
2023/01/02 04:37:38;;;;;;;0.80;0.70;;;14.80;55.00;;;;;;4854738;29;45749;-63
2023/01/02 04:40:08;;;;;;;0.88;0.70;;;14.80;54.90;;;;;;4889765;28;45914;-59
2023/01/02 04:42:33;;;;;;;0.60;0.60;;;14.80;54.90;;;;;;4882737;28;45469;-60
2023/01/02 04:44:59;;;;;;;0.60;0.60;;;14.80;54.90;;;;;;4881886;28;44938;-60
2023/01/02 04:47:24;;;;;;;0.95;0.80;;;14.80;54.90;;;;;;4887449;28;45801;-60
2023/01/02 04:49:50;;;;;;;0.60;0.60;;;14.80;54.90;;;;;;4887547;28;45551;-59
2023/01/02 04:52:15;;;;;;;1.23;0.75;;;14.80;54.80;;;;;;4881670;28;45235;-60
2023/01/02 04:54:41;;;;;;;1.73;0.70;;;14.80;54.80;;;;;;4887438;28;45393;-60
2023/01/02 04:57:06;;;;;;;0.45;0.45;;;14.80;54.80;;;;;;4880830;28;45505;-59
2023/01/02 04:59:32;;;;;;;0.85;0.70;;;14.80;54.80;;;;;;4882539;28;45429;-60
2023/01/02 05:01:57;;;;;;;1.13;0.77;;;14.80;54.80;;;;;;4884822;28;44806;-61
2023/01/02 05:04:28;;;;;;;0.60;0.60;;;14.80;54.90;;;;;;4882681;28;45390;-60
2023/01/02 05:06:54;;;;;;;1.27;0.80;;;14.80;54.90;;;;;;4886584;28;46907;-59
2023/01/02 05:09:19;;;;;;;1.08;0.90;;;14.80;54.90;;;;;;4871795;29;46168;-60
2023/01/02 05:11:45;;;;;;;1.33;0.70;;;14.80;54.90;;;;;;4884986;28;44641;-60
2023/01/02 05:14:11;;;;;;;1.05;0.85;;;14.80;54.90;;;;;;4888254;28;44713;-59
2023/01/02 05:16:36;;;;;;;1.05;0.80;;;14.80;54.90;;;;;;4883279;28;46426;-60
2023/01/02 05:19:02;;;;;;;0.85;0.60;;;14.80;54.90;;;;;;4877324;28;45655;-60
2023/01/02 05:24:11;;;;;;;0.70;0.70;;;14.80;54.90;;;;;;4887903;28;44978;-60
2023/01/02 05:26:37;;;;;;;0.90;0.70;;;14.80;54.90;;;;;;4890172;28;47600;-59
2023/01/02 05:29:02;;;;;;;0.80;0.80;;;14.80;54.90;;;;;;4885927;28;45461;-60
2023/01/02 05:31:28;;;;;;;1.27;0.73;;;14.80;54.90;;;;;;4902461;28;44710;-60
2023/01/02 05:33:54;;;;;;;0.63;0.63;;;14.80;55.50;;;;;;4888720;28;44990;-60
2023/01/02 05:36:20;;;;;;;1.15;0.73;;;14.80;54.90;;;;;;4888086;28;45339;-60
2023/01/02 05:38:46;;;;;;;0.90;0.90;;;14.80;54.90;;;;;;4893851;28;45301;-60
2023/01/02 05:41:11;;;;;;;0.70;0.70;;;14.80;54.90;;;;;;4887558;28;45295;-60
2023/01/02 05:43:37;;;;;;;0.73;0.70;;;14.80;54.90;;;;;;4889463;28;45329;-60
2023/01/02 05:46:06;;;;;;;0.63;0.63;;;14.80;54.90;;;;;;4886892;28;45567;-60
2023/01/02 05:48:32;;;;;;;0.70;0.70;;;14.80;54.80;;;;;;4889512;28;44901;-60
2023/01/02 05:51:01;;;;;;;0.70;0.60;;;14.80;54.90;;;;;;4893129;28;45504;-59
2023/01/02 05:53:27;;;;;;;1.00;0.90;;;14.80;54.90;;;;;;4889670;28;45438;-60
2023/01/02 05:55:52;;;;;;;0.57;0.57;;;14.80;54.90;;;;;;4886948;28;46588;-60
2023/01/02 05:58:18;;;;;;;0.80;0.75;;;14.80;54.90;;;;;;4893915;28;45027;-60
2023/01/02 06:00:43;;;;;;;0.68;0.60;;;14.80;54.90;;;;;;4891198;28;45097;-60
2023/01/02 06:03:09;;;;;;;0.90;0.65;;;14.80;54.90;;;;;;4902289;28;45386;-60
2023/01/02 06:05:34;;;;;;;0.82;0.80;;;14.80;54.90;;;;;;4889019;28;45430;-59
2023/01/02 06:08:00;;;;;;;0.70;0.70;;;14.80;54.90;;;;;;4887160;28;45588;-59
2023/01/02 06:10:25;;;;;;;1.00;0.73;;;14.80;54.90;;;;;;4893501;28;45351;-60
2023/01/02 06:12:51;;;;;;;0.80;0.73;;;14.80;55.50;;;;;;4889079;28;45363;-59
2023/01/02 06:15:16;;;;;;;0.60;0.60;;;14.80;54.90;;;;;;4888774;28;46186;-60
2023/01/02 06:17:42;;;;;;;0.90;0.77;;;14.80;54.90;;;;;;4896567;28;45049;-59
2023/01/02 06:20:08;;;;;;;1.05;0.70;;;14.80;54.90;;;;;;4892149;28;45128;-60
2023/01/02 06:22:34;;;;;;;0.85;0.68;;;14.80;54.90;;;;;;4890308;28;45585;-60
2023/01/02 06:24:59;;;;;;;1.08;0.80;;;14.80;54.90;;;;;;4891098;28;45290;-59
2023/01/02 06:27:25;;;;;;;0.90;0.80;;;14.80;54.80;;;;;;4891938;28;46014;-60
2023/01/02 06:29:50;;;;;;;0.82;0.80;;;14.80;54.90;;;;;;4871913;28;45319;-60
2023/01/02 06:32:16;;;;;;;0.70;0.70;;;14.80;54.80;;;;;;4869115;29;45230;-60
2023/01/02 06:34:41;;;;;;;0.82;0.80;;;14.80;54.90;;;;;;4907268;28;45450;-60
2023/01/02 06:37:07;;;;;;;0.88;0.70;;;14.80;54.90;;;;;;4889494;28;45271;-60
2023/01/02 06:39:32;;;;;;;0.63;0.50;;;14.80;54.90;;;;;;4890044;28;45050;-60
2023/01/02 06:41:58;;;;;;;0.60;0.60;;;14.80;54.80;;;;;;4884661;28;45435;-60
2023/01/02 06:44:23;;;;;;;0.80;0.70;;;14.80;54.80;;;;;;4890999;28;46136;-60
2023/01/02 06:46:49;;;;;;;0.60;0.60;;;14.80;54.80;;;;;;4888283;28;44949;-60
2023/01/02 06:49:14;;;;;;;2.97;1.80;;;14.80;54.80;;;;;;4892959;28;45421;-60
2023/01/02 06:51:40;;;;;;;10.75;2.28;;;14.70;55.20;;;;;;4890018;28;44883;-61
2023/01/02 06:54:05;;;;;;;3.33;2.17;;;14.60;55.30;;;;;;4888491;28;46750;-61
2023/01/02 06:56:31;;;;;;;6.55;2.70;;;14.50;55.50;;;;;;4875078;29;45553;-62
2023/01/02 06:58:57;;;;;;;5.40;2.60;;;14.60;55.50;;;;;;4890686;28;45256;-60
2023/01/02 07:01:23;;;;;;;4.03;2.80;;;14.70;55.40;;;;;;4887020;28;45226;-61
2023/01/02 07:03:48;;;;;;;3.83;2.50;;;14.80;55.20;;;;;;4887216;28;46417;-61
2023/01/02 07:06:16;;;;;;;3.78;2.20;;;15.00;54.90;;;;;;4859158;28;45540;-61
2023/01/02 07:08:42;;;;;;;3.45;2.50;;;15.20;54.60;;;;;;4874941;29;45076;-61
2023/01/02 07:11:14;;;;;;;3.35;2.03;;;15.40;54.30;;;;;;4890638;28;45313;-62
2023/01/02 07:13:40;;;;;;;5.60;2.10;;;15.60;54.00;;;;;;4888673;28;45355;-61
2023/01/02 07:16:07;;;;;;;3.15;2.00;;;15.80;53.80;;;;;;4898881;28;44860;-61
2023/01/02 07:18:33;;;;;;;2.72;1.80;;;16.00;53.60;;;;;;4890897;28;44915;-60
2023/01/02 07:20:59;;;;;;;2.75;1.63;;;16.20;53.40;;;;;;4874174;28;45082;-61
2023/01/02 07:23:24;;;;;;;2.35;1.55;;;16.40;53.20;;;;;;4870597;29;46733;-61
2023/01/02 07:25:55;;;;;;;3.50;1.77;;;16.50;53.00;;;;;;4889625;28;45415;-62
2023/01/02 07:28:21;;;;;;;2.20;1.65;;;16.70;52.90;;;;;;4896145;28;45215;-61
2023/01/02 07:30:47;;;;;;;3.28;1.60;;;16.90;52.70;;;;;;4891926;28;45290;-61
2023/01/02 07:33:12;;;;;;;2.80;1.80;;;17.10;53.10;;;;;;4887324;28;45880;-61
2023/01/02 07:35:38;;;;;;;2.67;1.50;;;17.20;52.40;;;;;;4885801;28;45458;-61
2023/01/02 07:38:03;;;;;;;2.08;1.52;;;17.40;52.30;;;;;;4896642;28;45079;-62
2023/01/02 07:40:29;;;;;;;3.25;1.67;;;17.60;52.20;;;;;;4877727;29;45630;-62
2023/01/02 07:42:54;;;;;;;2.10;1.60;;;17.70;51.90;;;;;;4890904;28;45968;-62
2023/01/02 07:45:20;;;;;;;3.70;1.35;;;17.80;51.80;;;;;;4885192;28;45263;-61
2023/01/02 07:47:45;;;;;;;2.13;1.65;;;18.00;51.70;;;;;;4888942;28;45198;-60
2023/01/02 07:50:11;;;;;;;1.73;1.33;;;18.10;51.50;;;;;;4892770;28;45179;-61
2023/01/02 07:52:36;;;;;;;3.05;1.80;;;18.30;51.40;;;;;;4875264;29;46131;-62
2023/01/02 07:55:02;;;;;;;1.27;1.17;;;18.50;51.30;;;;;;4884201;28;45464;-62
2023/01/02 07:57:30;;;;;;;3.75;1.48;;;18.60;51.10;;;;;;4872872;28;44754;-61
2023/01/02 07:59:55;;;;;;;1.67;1.50;;;18.80;50.90;;;;;;4889971;28;44790;-61
2023/01/02 08:02:21;;;;;;;1.80;1.35;;;18.90;50.80;;;;;;4889387;28;45664;-62
2023/01/02 08:04:47;;;;;;;1.65;1.23;;;19.10;50.80;;;;;;4889027;28;44709;-61
2023/01/02 08:07:12;;;;;;;1.33;1.10;;;19.20;50.60;;;;;;4889108;28;45479;-62
2023/01/02 08:09:38;;;;;;;1.45;1.30;;;19.30;50.40;;;;;;4890178;28;45336;-61
2023/01/02 08:12:03;;;;;;;1.92;1.38;;;19.50;50.40;;;;;;4886086;28;45513;-62
2023/01/02 08:14:29;;;;;;;4.38;1.42;;;19.60;50.20;;;;;;4889486;28;45442;-61
2023/01/02 08:16:55;;;;;;;3.90;1.42;;;19.70;50.00;;;;;;4886370;28;44901;-61
2023/01/02 08:19:20;;;;;;;1.92;1.38;;;19.90;50.60;;;;;;4877155;28;45210;-61
2023/01/02 08:21:46;;;;;;;1.10;1.00;;;20.10;49.90;;;;;;4893561;28;45455;-62
2023/01/02 08:24:11;;;;;;;2.42;1.35;;;20.20;49.70;;;;;;4883891;28;45225;-62
2023/01/02 08:26:37;;;;;;;1.48;1.25;;;20.30;49.60;;;;;;4885517;28;45530;-62
2023/01/02 08:29:03;;;;;;;1.48;1.20;;;20.40;49.40;;;;;;4884688;28;45431;-61
2023/01/02 08:31:28;;;;;;;1.48;1.00;;;20.60;49.40;;;;;;4890050;28;46739;-61
2023/01/02 08:33:54;;;;;;;1.65;1.23;;;20.60;49.30;;;;;;4888395;28;45683;-61
2023/01/02 08:36:19;;;;;;;1.52;1.30;;;20.70;49.20;;;;;;4888702;28;44695;-62
2023/01/02 08:38:45;;;;;;;1.63;1.20;;;20.80;49.10;;;;;;4887126;28;45081;-61
2023/01/02 08:41:10;;;;;;;2.13;1.48;;;20.90;49.10;;;;;;4886915;28;45265;-62
2023/01/02 08:43:36;;;;;;;1.75;1.50;;;21.00;49.00;;;;;;4870920;28;45082;-62
2023/01/02 08:46:05;;;;;;;2.25;1.27;;;21.10;48.90;;;;;;4891404;28;45453;-61
2023/01/02 08:48:31;;;;;;;2.08;1.17;;;21.20;48.70;;;;;;4888855;28;45224;-60
2023/01/02 08:50:56;;;;;;;1.65;1.20;;;21.30;48.70;;;;;;4884038;28;45270;-60
2023/01/02 08:53:22;;;;;;;2.40;1.40;;;21.40;48.60;;;;;;4871290;29;45294;-61
2023/01/02 08:55:47;;;;;;;2.45;1.35;;;21.50;48.60;;;;;;4888167;28;44999;-61
2023/01/02 08:58:13;;;;;;;3.05;1.15;;;21.60;48.50;;;;;;4890779;28;45226;-61
2023/01/02 09:00:38;;;;;;;2.17;1.30;;;21.60;48.40;;;;;;4889538;28;45049;-61
2023/01/02 09:03:04;;;;;;;1.95;1.10;;;21.70;48.20;;;;;;4893490;28;45661;-61
2023/01/02 09:05:29;;;;;;;1.42;1.02;;;21.80;48.20;;;;;;4906953;28;45556;-61
2023/01/02 09:07:56;;;;;;;2.55;1.27;;;21.90;48.10;;;;;;4895373;28;45505;-61
2023/01/02 09:10:22;;;;;;;1.83;1.13;;;22.00;48.00;;;;;;4865733;29;45289;-62
2023/01/02 09:12:48;;;;;;;1.00;0.82;;;22.00;47.90;;;;;;4895576;28;45015;-62
2023/01/02 09:15:13;;;;;;;1.65;1.30;;;22.10;47.80;;;;;;4907045;28;44753;-62
2023/01/02 09:17:39;;;;;;;1.42;1.05;;;22.20;47.80;;;;;;4895063;28;45383;-62
2023/01/02 09:20:04;;;;;;;1.42;1.20;;;22.30;47.70;;;;;;4892881;28;45584;-62
2023/01/02 09:22:30;;;;;;;1.30;1.20;;;22.30;47.60;;;;;;4892032;28;45473;-61
2023/01/02 09:24:55;;;;;;;3.00;0.90;;;22.40;47.60;;;;;;4882213;28;45702;-61
2023/01/02 09:27:21;;;;;;;1.65;1.17;;;22.50;47.50;;;;;;4894214;28;45178;-62
2023/01/02 09:29:47;;;;;;;1.40;1.23;;;22.50;47.40;;;;;;4893039;28;45448;-61
2023/01/02 09:32:12;;;;;;;1.52;1.10;;;22.60;47.40;;;;;;4891345;28;45115;-61
2023/01/02 09:34:38;;;;;;;2.20;1.10;;;22.60;47.30;;;;;;4890377;28;45603;-62
2023/01/02 09:37:03;;;;;;;1.60;1.08;;;22.70;47.20;;;;;;4892176;28;44702;-61
2023/01/02 09:39:29;;;;;;;2.05;1.23;;;22.80;47.20;;;;;;4887947;28;47037;-62
2023/01/02 09:41:56;;;;;;;1.10;0.95;;;22.90;47.10;;;;;;4890656;28;44735;-62
2023/01/02 09:44:34;;;;;;;2.25;0.90;;;22.90;47.00;;;;;;4872709;28;45442;-61
2023/01/02 09:47:09;;;;;;;2.08;1.20;;;23.00;46.80;;;;;;4874814;28;45221;-60
2023/01/02 09:49:53;;;;;;;1.00;0.75;;;23.10;46.40;;;;;;4894885;28;46851;-61
2023/01/02 09:52:26;;;;;;;;;;;23.10;46.30;;;;;;4885098;28;45200;-62
2023/01/02 09:54:51;;;;;;;1.53;1.23;;;23.10;45.70;;;;;;4891849;28;45422;-62
2023/01/02 09:57:26;;;;;;;8.70;1.20;;;23.20;46.60;;;;;;4875962;28;45621;-61
2023/01/02 10:00:18;;;;;;;1.45;0.88;;;23.20;46.20;;;;;;4890984;28;46115;-62
2023/01/02 10:03:10;;;;;;;1.35;0.77;;;23.20;45.80;;;;;;4889216;28;45485;-62
2023/01/02 10:06:09;;;;;;;1.45;1.00;;;23.20;46.20;;;;;;4892396;28;44765;-62
2023/01/02 10:08:51;;;;;;;1.58;0.95;;;23.30;46.10;;;;;;4894938;28;45281;-61
2023/01/02 10:11:25;;;;;;;1.05;0.85;;;23.30;46.00;;;;;;4889657;28;45355;-61
2023/01/02 10:13:55;;;;;;;2.17;0.95;;;23.40;46.40;;;;;;4892460;28;44940;-61
2023/01/02 10:16:25;;;;;;;1.15;1.05;;;23.50;46.20;;;;;;4868863;28;45478;-63
2023/01/02 10:18:51;;;;;;;1.52;0.95;;;23.50;46.20;;;;;;4887524;28;46112;-62
2023/01/02 10:21:22;;;;;;;1.05;0.95;;;23.60;46.10;;;;;;4875674;28;46734;-62
2023/01/02 10:23:54;;;;;;;1.48;1.05;;;23.60;46.00;;;;;;4877469;29;45542;-62
2023/01/02 10:26:21;;;;;;;0.77;0.77;;;23.60;45.90;;;;;;4872088;28;45598;-62
2023/01/02 10:28:56;;;;;;;2.47;0.90;;;23.60;46.00;;;;;;4891015;28;45227;-62
2023/01/02 10:31:28;;;;;;;1.73;0.98;;;23.70;46.10;;;;;;4891540;28;45684;-62
2023/01/02 10:34:01;;;;;;;1.10;0.90;;;23.70;46.00;;;;;;4888373;28;45245;-62
2023/01/02 10:36:30;;;;;;;1.17;1.02;;;23.70;46.00;;;;;;4874440;28;45967;-62
2023/01/02 10:39:01;;;;;;;1.92;0.95;;;23.70;45.90;;;;;;4891196;28;45185;-62
2023/01/02 10:41:27;;;;;;;3.50;0.98;;;23.80;45.90;;;;;;4888983;28;47166;-62
2023/01/02 10:43:54;;;;;;;1.17;0.98;;;23.80;46.00;;;;;;4875789;29;45459;-62
2023/01/02 10:46:20;;;;;;;0.90;0.70;;;23.90;45.90;;;;;;4892672;28;45246;-62
2023/01/02 10:48:46;;;;;;;4.07;1.00;;;23.90;45.80;;;;;;4891261;28;45134;-61
2023/01/02 10:51:13;;;;;;;3.25;1.20;;;24.00;45.80;;;;;;4892681;28;45570;-62
2023/01/02 10:53:38;;;;;;;1.20;0.90;;;24.00;45.70;;;;;;4874491;29;45233;-62
2023/01/02 10:56:06;;;;;;;1.63;0.95;;;24.10;45.70;;;;;;4892179;28;44936;-61
2023/01/02 10:58:32;;;;;;;1.08;0.80;;;24.10;45.60;;;;;;4874780;28;45092;-62
2023/01/02 11:01:06;;;;;;;1.20;0.90;;;24.20;45.60;;;;;;4887689;28;45077;-61
2023/01/02 11:03:31;;;;;;;1.40;0.82;;;24.20;45.30;;;;;;4880985;28;45295;-62
2023/01/02 11:05:57;;;;;;;0.80;0.80;;;24.30;45.50;;;;;;4872568;29;45142;-62
2023/01/02 11:08:32;;;;;;;1.45;0.90;;;24.30;45.40;;;;;;4892866;28;45777;-62
2023/01/02 11:11:00;;;;;;;1.23;0.85;;;24.40;45.40;;;;;;4873082;29;45456;-62
2023/01/02 11:13:26;;;;;;;1.40;0.82;;;24.40;45.30;;;;;;4888841;28;45363;-61
2023/01/02 11:15:56;;;;;;;1.25;0.80;;;24.50;45.30;;;;;;4891772;28;45197;-62
2023/01/02 11:18:29;;;;;;;0.85;0.70;;;24.50;45.20;;;;;;4891688;28;45103;-62
2023/01/02 11:20:58;;;;;;;1.08;0.90;;;24.60;45.10;;;;;;4889375;28;45302;-61
2023/01/02 11:23:24;;;;;;;1.48;1.02;;;24.60;45.20;;;;;;4891386;28;45471;-63
2023/01/02 11:25:50;;;;;;;0.80;0.70;;;24.60;45.10;;;;;;4876370;29;45505;-61
2023/01/02 11:28:19;;;;;;;1.35;0.73;;;24.70;45.10;;;;;;4890673;28;45526;-62
2023/01/02 11:30:53;;;;;;;0.75;0.73;;;24.70;45.10;;;;;;4873152;29;45660;-63
2023/01/02 11:33:19;;;;;;;1.23;0.82;;;24.70;44.80;;;;;;4886997;28;45540;-62
2023/01/02 11:36:03;;;;;;;0.80;0.80;;;24.80;45.10;;;;;;4895258;28;44658;-62
2023/01/02 11:38:48;;;;;;;0.88;0.65;;;24.80;45.00;;;;;;4885985;28;45549;-62
2023/01/02 11:44:20;;;;;;;1.17;0.80;;;24.80;44.60;;;;;;4880803;28;45155;-63
2023/01/02 11:46:46;;;;;;;1.30;0.80;;;24.80;45.00;;;;;;4891570;28;45447;-62
2023/01/02 11:49:23;;;;;;;0.98;0.70;;;24.80;44.90;;;;;;4892660;28;45472;-62
2023/01/02 11:51:54;;;;;;;1.85;0.70;;;24.80;44.60;;;;;;4876402;29;46396;-62
2023/01/02 11:54:21;;;;;;;1.77;0.80;;;24.80;44.90;;;;;;4892830;28;45413;-61
2023/01/02 11:56:47;;;;;;;1.10;0.80;;;24.80;44.90;;;;;;4895213;28;45572;-62
2023/01/02 11:59:18;;;;;;;0.93;0.70;;;24.80;44.90;;;;;;4890231;28;45224;-61
2023/01/02 12:02:09;;;;;;;1.13;0.80;;;24.80;44.90;;;;;;4871924;28;45489;-62
2023/01/02 12:04:35;;;;;;;0.57;0.57;;;24.80;44.40;;;;;;4886085;28;45113;-62
2023/01/02 12:07:28;;;;;;;1.67;0.90;;;24.80;45.00;;;;;;4895158;28;45446;-62
2023/01/02 12:10:18;;;;;;;1.33;0.75;;;24.80;45.00;;;;;;4877714;29;45231;-62
2023/01/02 12:13:17;;;;;;;0.80;0.77;;;24.80;44.40;;;;;;4891667;28;45456;-62
2023/01/02 12:16:10;;;;;;;2.63;0.88;;;24.80;44.60;;;;;;4888391;28;45373;-62
2023/01/02 12:18:36;;;;;;;1.17;0.90;;;24.80;44.60;;;;;;4895111;28;45419;-62
2023/01/02 12:21:21;;;;;;;1.17;0.73;;;24.80;44.90;;;;;;4895882;28;45210;-61
2023/01/02 12:24:13;;;;;;;3.35;1.00;;;24.80;44.80;;;;;;4887045;28;45355;-63
2023/01/02 12:26:48;;;;;;;1.08;0.75;;;24.80;44.40;;;;;;4892815;28;45410;-63
2023/01/02 12:29:21;;;;;;;1.23;0.85;;;24.80;44.90;;;;;;4892355;28;45256;-63
2023/01/02 12:32:18;;;;;;;1.05;0.77;;;24.90;44.90;;;;;;4890354;28;45517;-62
2023/01/02 12:35:09;;;;;;;2.45;1.02;;;24.90;44.40;;;;;;4890614;28;47008;-62
2023/01/02 12:37:50;;;;;;;1.10;0.75;;;24.90;44.70;;;;;;4887902;28;45015;-61
2023/01/02 12:40:25;;;;;;;1.20;0.75;;;24.90;44.50;;;;;;4892595;28;45413;-63
2023/01/02 12:43:07;;;;;;;0.93;0.77;;;25.00;44.80;;;;;;4892888;28;45522;-63
2023/01/02 12:45:39;;;;;;;0.77;0.70;;;25.00;44.70;;;;;;4879003;28;45455;-64
2023/01/02 12:48:31;;;;;;;0.77;0.60;;;25.00;44.70;;;;;;4892088;28;45602;-63
2023/01/02 12:51:14;;;;;;;2.47;0.77;;;25.00;44.60;;;;;;4891784;28;45225;-63
2023/01/02 12:54:02;;;;;;;0.70;0.70;;;25.00;44.50;;;;;;4872103;28;44883;-64
2023/01/02 12:56:37;;;;;;;0.82;0.63;;;25.00;44.50;;;;;;4888186;28;45859;-64
2023/01/02 12:59:37;;;;;;;0.60;0.60;;;25.10;44.60;;;;;;4893795;28;45147;-64
2023/01/02 13:02:20;;;;;;;1.33;0.85;;;25.10;44.40;;;;;;4887592;28;44749;-62
2023/01/02 13:04:47;;;;;;;0.90;0.63;;;25.10;44.40;;;;;;4872237;29;44750;-63
2023/01/02 13:07:36;;;;;;;1.10;0.82;;;25.20;44.80;;;;;;4873050;28;45735;-62
2023/01/02 13:10:02;;;;;;;0.77;0.50;;;25.20;44.50;;;;;;4868510;29;44751;-62
2023/01/02 13:12:29;;;;;;;0.70;0.60;;;25.20;44.80;;;;;;4891381;28;45378;-63
2023/01/02 13:15:08;;;;;;;0.80;0.80;;;25.20;44.70;;;;;;4885468;28;45604;-63
2023/01/02 13:17:36;;;;;;;0.82;0.80;;;25.30;44.70;;;;;;4884432;28;45186;-64
2023/01/02 13:20:19;;;;;;;1.40;0.90;;;25.30;44.80;;;;;;4902884;28;45185;-63
2023/01/02 13:23:03;;;;;;;1.67;0.80;;;25.30;44.50;;;;;;4893841;28;45440;-63
2023/01/02 13:25:29;;;;;;;2.08;0.60;;;25.30;44.30;;;;;;4889711;28;45495;-63
2023/01/02 13:27:55;;;;;;;0.70;0.50;;;25.30;44.70;;;;;;4876168;29;45596;-63
2023/01/02 13:30:33;;;;;;;0.57;0.50;;;25.40;44.70;;;;;;4875990;28;45174;-63
2023/01/02 13:32:59;;;;;;;0.90;0.60;;;25.40;44.40;;;;;;4893193;28;46387;-63
2023/01/02 13:35:25;;;;;;;1.13;0.60;;;25.40;44.70;;;;;;4889668;28;45237;-62
2023/01/02 13:37:51;;;;;;;2.58;0.68;;;25.50;44.70;;;;;;4901279;28;45372;-62
2023/01/02 13:40:31;;;;;;;0.40;0.40;;;25.50;44.70;;;;;;4875152;28;44689;-64
2023/01/02 13:42:58;;;;;;;1.42;0.77;;;25.50;44.40;;;;;;4892766;28;45362;-64
2023/01/02 13:45:46;;;;;;;0.82;0.70;;;25.50;44.70;;;;;;4890046;28;45160;-63
2023/01/02 13:48:37;;;;;;;0.52;0.50;;;25.50;44.60;;;;;;4896398;28;46717;-63
2023/01/02 13:51:05;;;;;;;0.85;0.70;;;25.50;44.30;;;;;;4894741;28;45105;-63
2023/01/02 13:53:47;;;;;;;1.10;0.60;;;25.60;44.60;;;;;;4896232;28;45266;-64
2023/01/02 13:56:23;;;;;;;0.60;0.50;;;25.60;44.40;;;;;;4889885;28;45543;-62
2023/01/02 13:58:49;;;;;;;0.80;0.60;;;25.60;44.40;;;;;;4893987;28;46381;-63
2023/01/02 14:01:24;;;;;;;0.70;0.70;;;25.60;44.60;;;;;;4892322;28;45734;-63
2023/01/02 14:04:08;;;;;;;0.77;0.68;;;25.70;45.10;;;;;;4903413;28;45290;-63
2023/01/02 14:06:41;;;;;;;0.80;0.57;;;25.70;44.20;;;;;;4894800;28;45411;-64
2023/01/02 14:09:11;;;;;;;0.73;0.52;;;25.70;44.50;;;;;;4891219;28;45508;-64
2023/01/02 14:11:41;;;;;;;0.60;0.60;;;25.70;44.50;;;;;;4894961;28;45599;-63
2023/01/02 14:14:44;;;;;;;1.38;0.55;;;25.70;44.50;;;;;;4875409;29;45143;-64
2023/01/02 14:17:47;;;;;;;1.23;0.50;;;25.70;44.20;;;;;;4889975;28;44670;-62
2023/01/02 14:20:26;;;;;;;1.80;0.40;;;25.80;44.30;;;;;;4893623;28;45317;-62
2023/01/02 14:22:53;;;;;;;1.05;0.68;;;25.80;44.30;;;;;;4896941;28;45097;-63
2023/01/02 14:25:19;;;;;;;0.80;0.65;;;25.80;44.60;;;;;;4894328;28;45347;-63
2023/01/02 14:27:49;;;;;;;0.60;0.57;;;25.80;44.70;;;;;;4894987;28;45356;-64
2023/01/02 14:30:18;;;;;;;1.30;0.70;;;25.80;44.50;;;;;;4887290;28;46198;-64
2023/01/02 14:32:44;;;;;;;0.70;0.40;;;25.80;44.60;;;;;;4865596;29;45402;-64
2023/01/02 14:35:13;;;;;;;1.48;0.55;;;25.90;44.70;;;;;;4846672;29;45261;-62
2023/01/02 14:37:48;;;;;;;1.30;0.80;;;25.90;44.60;;;;;;4891238;28;45335;-64
2023/01/02 14:40:23;;;;;;;1.65;0.90;;;25.90;44.60;;;;;;4908381;28;45628;-64
2023/01/02 14:45:44;;;;;;;2.50;0.70;;;25.90;44.70;;;;;;4895747;28;45122;-63
2023/01/02 14:48:12;;;;;;;1.30;0.60;;;25.90;44.60;;;;;;4894100;28;45143;-64
2023/01/02 14:50:37;;;;;;;0.63;0.60;;;26.00;44.70;;;;;;4898411;28;46150;-63
2023/01/02 14:53:09;;;;;;;1.20;0.50;;;26.00;44.70;;;;;;4894674;28;44837;-63
2023/01/02 14:55:37;;;;;;;0.80;0.70;;;26.00;44.70;;;;;;4879466;28;45174;-64
2023/01/02 14:58:03;;;;;;;2.35;0.50;;;26.00;44.60;;;;;;4893125;28;45230;-63
2023/01/02 15:00:31;;;;;;;0.60;0.60;;;26.00;44.70;;;;;;4876272;28;46650;-62
2023/01/02 15:03:22;;;;;;;0.60;0.60;;;26.00;44.60;;;;;;4873525;29;45556;-63
2023/01/02 15:05:52;;;;;;;1.00;0.57;;;26.10;44.30;;;;;;4885682;28;45628;-63
2023/01/02 15:08:27;;;;;;;0.38;0.35;;;26.00;44.60;;;;;;4879229;28;45136;-64
2023/01/02 15:10:54;;;;;;;0.70;0.50;;;26.10;44.50;;;;;;4888504;28;45328;-64
2023/01/02 15:13:26;;;;;;;0.75;0.73;;;26.10;44.60;;;;;;4889961;28;45368;-64
2023/01/02 15:15:53;;;;;;;1.67;0.57;;;26.10;44.50;;;;;;4873122;29;45440;-64
2023/01/02 15:18:30;;;;;;;2.90;0.63;;;26.10;44.60;;;;;;4884722;28;45254;-63
2023/01/02 15:21:01;;;;;;;1.30;0.52;;;26.10;44.60;;;;;;4894962;28;45980;-64
2023/01/02 15:23:27;;;;;;;1.10;0.80;;;26.10;44.60;;;;;;4892203;28;45634;-63
2023/01/02 15:25:53;;;;;;;1.35;0.60;;;26.20;44.60;;;;;;4879148;29;45299;-64
2023/01/02 15:28:28;;;;;;;1.52;0.70;;;26.20;44.60;;;;;;4886816;28;44744;-63
2023/01/02 15:30:58;;;;;;;0.50;0.50;;;26.20;44.50;;;;;;4884076;28;46546;-63
2023/01/02 15:33:30;;;;;;;1.60;0.60;;;26.20;44.60;;;;;;4894436;28;46402;-63
2023/01/02 15:36:02;;;;;;;1.00;0.90;;;26.20;44.60;;;;;;4898209;28;45379;-63
2023/01/02 15:38:27;;;;;;;0.65;0.57;;;26.20;44.60;;;;;;4886193;28;45160;-63
2023/01/02 15:40:56;;;;;;;0.85;0.50;;;26.20;44.60;;;;;;4892887;28;46252;-62
2023/01/02 15:46:06;;;;;;;0.65;0.52;;;26.20;44.50;;;;;;4887455;28;45522;-64
2023/01/02 15:48:32;;;;;;;1.00;0.63;;;26.20;44.60;;;;;;4887664;28;45612;-63
2023/01/02 15:50:58;;;;;;;0.65;0.55;;;26.20;44.60;;;;;;4894931;28;47465;-64
2023/01/02 15:53:35;;;;;;;0.77;0.60;;;26.30;44.60;;;;;;4889770;28;45251;-63
2023/01/02 15:56:01;;;;;;;0.70;0.50;;;26.30;44.50;;;;;;4895142;28;45252;-62
2023/01/02 15:58:28;;;;;;;1.23;0.60;;;26.30;44.60;;;;;;4865329;28;45720;-62
2023/01/02 16:01:13;;;;;;;1.70;0.57;;;26.30;44.60;;;;;;4892457;28;45253;-61
2023/01/02 16:03:40;;;;;;;1.05;0.50;;;26.20;44.40;;;;;;4887873;28;45404;-63
2023/01/02 16:06:11;;;;;;;0.55;0.52;;;26.00;44.80;;;;;;4878270;29;44754;-62
2023/01/02 16:08:36;;;;;;;0.82;0.50;;;25.90;44.90;;;;;;4887985;28;46076;-60
2023/01/02 16:11:02;;;;;;;2.47;0.60;;;25.80;45.00;;;;;;4866966;29;47410;-63
2023/01/02 16:16:19;;;;;;;0.52;0.52;;;25.50;45.50;;;;;;4885440;28;45202;-63
2023/01/02 16:18:57;;;;;;;0.80;0.60;;;25.40;45.70;;;;;;4891183;28;45627;-62
2023/01/02 16:21:22;;;;;;;0.80;0.70;;;25.30;45.80;;;;;;4874069;28;46187;-62
2023/01/02 16:23:49;;;;;;;0.55;0.50;;;25.20;45.90;;;;;;4858852;29;45491;-60
2023/01/02 16:26:15;;;;;;;2.15;0.55;;;25.20;46.00;;;;;;4872530;28;45145;-59
2023/01/02 16:28:41;;;;;;;0.85;0.60;;;25.10;46.30;;;;;;4874074;29;45389;-61
2023/01/02 16:31:11;;;;;;;0.98;0.75;;;25.00;46.70;;;;;;4886429;28;45559;-61
2023/01/02 16:33:37;;;;;;;0.95;0.65;;;24.90;46.20;;;;;;4895651;28;45113;-61
2023/01/02 16:36:02;;;;;;;0.75;0.60;;;24.80;46.40;;;;;;4888052;28;44713;-61
2023/01/02 16:38:28;;;;;;;0.70;0.50;;;24.70;46.40;;;;;;4889193;28;45355;-60
2023/01/02 16:41:11;;;;;;;0.90;0.52;;;24.60;46.60;;;;;;4873091;29;45464;-61
2023/01/02 16:43:37;;;;;;;1.50;0.52;;;24.60;46.70;;;;;;4881272;28;45206;-61
2023/01/02 16:46:02;;;;;;;1.55;0.70;;;24.50;46.80;;;;;;4887977;28;45548;-61
2023/01/02 16:48:28;;;;;;;0.80;0.50;;;24.40;46.90;;;;;;4887595;28;45240;-61
2023/01/02 16:50:55;;;;;;;1.52;0.60;;;24.40;47.10;;;;;;4871976;29;46314;-60
2023/01/02 16:53:28;;;;;;;0.73;0.52;;;24.30;47.10;;;;;;4885905;28;45151;-61
2023/01/02 16:55:54;;;;;;;0.50;0.50;;;24.20;47.20;;;;;;4873323;28;45220;-60
2023/01/02 16:58:20;;;;;;;0.50;0.40;;;24.10;47.20;;;;;;4890812;28;44662;-61
2023/01/02 17:00:46;;;;;;;0.70;0.52;;;24.10;47.40;;;;;;4883942;28;46679;-61
2023/01/02 17:03:14;;;;;;;1.85;0.55;;;24.00;47.50;;;;;;4869035;29;45282;-61
2023/01/02 17:05:40;;;;;;;1.08;0.57;;;23.90;47.70;;;;;;4888790;28;45324;-61
2023/01/02 17:08:06;;;;;;;1.42;0.60;;;23.80;48.30;;;;;;4888200;28;45229;-61
2023/01/02 17:10:31;;;;;;;1.70;0.73;;;23.70;47.80;;;;;;4887884;28;46113;-62
2023/01/02 17:12:57;;;;;;;0.70;0.50;;;23.70;47.90;;;;;;4889713;28;44793;-61
2023/01/02 17:15:23;;;;;;;0.80;0.50;;;23.70;48.00;;;;;;4899493;28;45166;-61
2023/01/02 17:17:48;;;;;;;0.60;0.50;;;23.50;48.00;;;;;;4880838;28;45093;-61